Terminal Aerodrome Forecast
Issued by NWS Cleveland, OH

Home | Current Version | Previous Version | Text Only | Print | Product List | Glossary On
Versions: 1 2 3 4 5 6 7 8 9 10 11 12 13 14 15 16 17
126
FTUS41 KCLE 291739 AAA
TAFYNG
TAF AMD
KYNG 291739Z 2918/3018 25015KT P6SM FEW050 SCT100
     FM300800 20006KT P6SM VCSH SCT050 BKN200
     FM301300 20007KT P6SM SCT090=

USA.gov is the U.S. government's official web portal to all federal, state and local government web resources and services.